Terminal Aerodrome Forecast
Issued by NWS Louisville, KY

Home | Current Version | Previous Version | Text Only | Print | Product List | Glossary On
Versions: 1 2 3 4 5 6 7 8 9 10 11 12 13 14 15 16 17
720
FTUS43 KLMK 042005 AAA
TAFSDF
TAF AMD
KSDF 042005Z 0420/0524 15008KT 4SM -RA BR BKN008 OVC015
      TEMPO 0420/0423 1SM RA BR
     FM042300 19007KT 3SM -RA BR BKN006
     FM050500 29008KT 6SM -DZ BR BKN009
     FM051000 VRB04KT P6SM OVC010
     FM051500 08004KT P6SM OVC014=

USA.gov is the U.S. government's official web portal to all federal, state and local government web resources and services.